N63120 KU76-KBOI
Flight info
| Callsign | N63120 |
|---|---|
| Flight time | N/A |
| Altitude | 5000 |
| Route | DCT JIMMI DCT |
| Aircraft | C172/L-SFG/C |
Departure
| Time | 2026-04-12 04:24 |
|---|---|
| Airport | Mountain Home Municipal Airport (KU76) |
Arrival
| Time | N/A |
|---|---|
| Airport | Boise Air Terminal/Gowen Field (KBOI) |
| Time | Latitude | Longitude | Altitude | Speed | Heading |
|---|---|---|---|---|---|
| 2026-04-12 04:13 | 43.12863 | -115.72791 | 3177 ft | 0 kts | 204° |
| 2026-04-12 04:17 | 43.12856 | -115.72787 | 3178 ft | 5 kts | 115° |
| 2026-04-12 04:17 | 43.12890 | -115.72770 | 3178 ft | 8 kts | 4° |
| 2026-04-12 04:17 | 43.12945 | -115.72747 | 3177 ft | 8 kts | 28° |
| 2026-04-12 04:18 | 43.12987 | -115.72775 | 3177 ft | 10 kts | 300° |
| 2026-04-12 04:18 | 43.13015 | -115.72849 | 3177 ft | 10 kts | 297° |
| 2026-04-12 04:18 | 43.13061 | -115.72967 | 3176 ft | 16 kts | 299° |
| 2026-04-12 04:18 | 43.13111 | -115.73109 | 3177 ft | 16 kts | 296° |
| 2026-04-12 04:19 | 43.13161 | -115.73243 | 3179 ft | 16 kts | 302° |
| 2026-04-12 04:19 | 43.13210 | -115.73382 | 3179 ft | 16 kts | 298° |
| 2026-04-12 04:19 | 43.13260 | -115.73518 | 3182 ft | 18 kts | 294° |
| 2026-04-12 04:19 | 43.13312 | -115.73659 | 3180 ft | 16 kts | 295° |
| 2026-04-12 04:20 | 43.13356 | -115.73780 | 3181 ft | 12 kts | 295° |
| 2026-04-12 04:20 | 43.13390 | -115.73878 | 3181 ft | 12 kts | 290° |
| 2026-04-12 04:20 | 43.13405 | -115.73913 | 3181 ft | 0 kts | 319° |
| 2026-04-12 04:22 | 43.13431 | -115.73916 | 3180 ft | 5 kts | 28° |
| 2026-04-12 04:22 | 43.13442 | -115.73908 | 3179 ft | 0 kts | 28° |
| 2026-04-12 04:23 | 43.13460 | -115.73869 | 3180 ft | 7 kts | 77° |
| 2026-04-12 04:23 | 43.13431 | -115.73784 | 3181 ft | 22 kts | 116° |
| 2026-04-12 04:23 | 43.13292 | -115.73407 | 3184 ft | 64 kts | 117° |
| 2026-04-12 04:23 | 43.13051 | -115.72788 | 3273 ft | 79 kts | 117° |
| 2026-04-12 04:24 | 43.12785 | -115.72134 | 3459 ft | 79 kts | 119° |
| 2026-04-12 04:24 | 43.12493 | -115.71489 | 3637 ft | 80 kts | 117° |
| 2026-04-12 04:24 | 43.12448 | -115.70749 | 3780 ft | 82 kts | 64° |
| 2026-04-12 04:24 | 43.12838 | -115.70192 | 3959 ft | 81 kts | 41° |
| 2026-04-12 04:25 | 43.13126 | -115.69883 | 4105 ft | 78 kts | 35° |
| 2026-04-12 04:25 | 43.13639 | -115.69665 | 4219 ft | 85 kts | 349° |
| 2026-04-12 04:25 | 43.14147 | -115.70124 | 4342 ft | 92 kts | 323° |
| 2026-04-12 04:25 | 43.14602 | -115.70702 | 4559 ft | 86 kts | 316° |
| 2026-04-12 04:26 | 43.14978 | -115.71335 | 4770 ft | 82 kts | 310° |
| 2026-04-12 04:26 | 43.15349 | -115.71984 | 4884 ft | 90 kts | 325° |
| 2026-04-12 04:26 | 43.15846 | -115.72513 | 5019 ft | 92 kts | 319° |
| 2026-04-12 04:26 | 43.16339 | -115.73102 | 5148 ft | 95 kts | 320° |
| 2026-04-12 04:27 | 43.16839 | -115.73710 | 5276 ft | 97 kts | 320° |
| 2026-04-12 04:27 | 43.17343 | -115.74327 | 5404 ft | 98 kts | 319° |
| 2026-04-12 04:27 | 43.17853 | -115.74954 | 5498 ft | 102 kts | 320° |
| 2026-04-12 04:27 | 43.18411 | -115.75634 | 5505 ft | 112 kts | 320° |
| 2026-04-12 04:28 | 43.19008 | -115.76364 | 5507 ft | 117 kts | 320° |
| 2026-04-12 04:28 | 43.19625 | -115.77122 | 5502 ft | 121 kts | 320° |
| 2026-04-12 04:28 | 43.20251 | -115.77894 | 5501 ft | 122 kts | 320° |
| 2026-04-12 04:28 | 43.20882 | -115.78672 | 5502 ft | 122 kts | 320° |
| 2026-04-12 04:29 | 43.21516 | -115.79455 | 5502 ft | 123 kts | 320° |
| 2026-04-12 04:29 | 43.22152 | -115.80240 | 5501 ft | 123 kts | 320° |
| 2026-04-12 04:29 | 43.22790 | -115.81029 | 5501 ft | 124 kts | 320° |
| 2026-04-12 04:29 | 43.23417 | -115.81802 | 5489 ft | 118 kts | 320° |
| 2026-04-12 04:30 | 43.24013 | -115.82541 | 5489 ft | 113 kts | 320° |
| 2026-04-12 04:30 | 43.24590 | -115.83255 | 5485 ft | 111 kts | 320° |
| 2026-04-12 04:30 | 43.25157 | -115.83956 | 5475 ft | 109 kts | 320° |
| 2026-04-12 04:30 | 43.25715 | -115.84647 | 5485 ft | 108 kts | 320° |
| 2026-04-12 04:31 | 43.26271 | -115.85335 | 5479 ft | 107 kts | 320° |
| 2026-04-12 04:31 | 43.26825 | -115.86022 | 5473 ft | 107 kts | 320° |
| 2026-04-12 04:31 | 43.27377 | -115.86706 | 5480 ft | 107 kts | 320° |
| 2026-04-12 04:31 | 43.27930 | -115.87390 | 5477 ft | 107 kts | 320° |
| 2026-04-12 04:32 | 43.28482 | -115.88073 | 5470 ft | 107 kts | 320° |
| 2026-04-12 04:32 | 43.29033 | -115.88756 | 5475 ft | 107 kts | 319° |
| 2026-04-12 04:32 | 43.29578 | -115.89431 | 5469 ft | 107 kts | 320° |
| 2026-04-12 04:32 | 43.30138 | -115.90125 | 5466 ft | 107 kts | 320° |
| 2026-04-12 04:33 | 43.30690 | -115.90810 | 5470 ft | 107 kts | 320° |
| 2026-04-12 04:33 | 43.31233 | -115.91485 | 5463 ft | 107 kts | 320° |
| 2026-04-12 04:33 | 43.31785 | -115.92170 | 5467 ft | 107 kts | 320° |
| 2026-04-12 04:33 | 43.32336 | -115.92854 | 5470 ft | 107 kts | 320° |
| 2026-04-12 04:34 | 43.32888 | -115.93538 | 5469 ft | 107 kts | 319° |
| 2026-04-12 04:34 | 43.33441 | -115.94224 | 5465 ft | 107 kts | 319° |
| 2026-04-12 04:34 | 43.33994 | -115.94911 | 5465 ft | 107 kts | 320° |
| 2026-04-12 04:34 | 43.34549 | -115.95601 | 5466 ft | 108 kts | 319° |
| 2026-04-12 04:35 | 43.35105 | -115.96292 | 5470 ft | 108 kts | 320° |
| 2026-04-12 04:35 | 43.35662 | -115.96984 | 5468 ft | 108 kts | 320° |
| 2026-04-12 04:35 | 43.36219 | -115.97677 | 5466 ft | 108 kts | 319° |
| 2026-04-12 04:35 | 43.36776 | -115.98369 | 5464 ft | 108 kts | 319° |
| 2026-04-12 04:36 | 43.37332 | -115.99063 | 5474 ft | 108 kts | 319° |
| 2026-04-12 04:36 | 43.37889 | -115.99760 | 5471 ft | 108 kts | 319° |
| 2026-04-12 04:36 | 43.38448 | -116.00457 | 5470 ft | 108 kts | 320° |
| 2026-04-12 04:36 | 43.39009 | -116.01148 | 5477 ft | 108 kts | 318° |